Time;durP1;ratioP1;P1;durP2;ratioP2;P2;SDS_P1;SDS_P2;PMS_P1;PMS_P2;Temp;Humidity;BMP_temperature;BMP_pressure;BME280_temperature;BME280_humidity;BME280_pressure;Samples;Min_cycle;Max_cycle;Signal;HPM_P1;HPM_P2
2022/05/07 00:00:59;;;;;;;23.42;14.82;;;12.50;99.90;;;;;;4962524;28;20158;-74
2022/05/07 00:03:27;;;;;;;21.98;15.02;;;12.50;99.90;;;;;;4963049;28;20129;-74
2022/05/07 00:05:53;;;;;;;28.60;15.43;;;12.50;99.90;;;;;;4970815;28;20034;-74
2022/05/07 00:08:19;;;;;;;20.70;14.75;;;12.50;99.90;;;;;;4963258;28;20049;-74
2022/05/07 00:10:44;;;;;;;25.52;16.23;;;12.40;99.90;;;;;;4968291;28;20031;-74
2022/05/07 00:13:10;;;;;;;22.45;14.68;;;12.40;99.90;;;;;;4962214;28;20490;-74
2022/05/07 00:15:36;;;;;;;23.88;15.30;;;12.40;99.90;;;;;;4964343;28;20070;-74
2022/05/07 00:18:01;;;;;;;25.70;15.57;;;12.40;99.90;;;;;;4964293;28;20039;-74
2022/05/07 00:20:31;;;;;;;25.30;15.98;;;12.40;99.90;;;;;;4964019;28;20125;-74
2022/05/07 00:22:57;;;;;;;26.73;15.63;;;12.30;99.90;;;;;;4964513;28;20046;-74
2022/05/07 00:25:27;;;;;;;21.38;15.60;;;12.30;99.90;;;;;;4964741;28;20046;-74
2022/05/07 00:27:53;;;;;;;21.92;14.57;;;12.30;99.90;;;;;;4961754;28;20049;-74
2022/05/07 00:30:19;;;;;;;21.17;14.65;;;12.30;99.90;;;;;;4963792;28;20043;-74
2022/05/07 00:32:45;;;;;;;21.63;13.82;;;12.40;99.90;;;;;;4965974;28;20035;-74
2022/05/07 00:35:10;;;;;;;22.75;14.93;;;12.40;99.90;;;;;;4967440;28;20470;-74
2022/05/07 00:37:37;;;;;;;20.25;14.48;;;12.40;99.90;;;;;;4967148;28;20038;-75
2022/05/07 00:40:04;;;;;;;22.65;15.18;;;12.40;99.90;;;;;;4965838;28;20526;-74
2022/05/07 00:42:30;;;;;;;21.88;14.57;;;12.40;99.90;;;;;;4964181;28;20043;-75
2022/05/07 00:44:55;;;;;;;19.77;13.30;;;12.40;99.90;;;;;;4964982;28;20046;-75
2022/05/07 00:47:24;;;;;;;22.15;14.85;;;12.40;99.90;;;;;;4964785;28;20080;-75
2022/05/07 00:49:53;;;;;;;21.77;14.77;;;12.40;99.90;;;;;;4963713;28;20042;-74
2022/05/07 00:52:19;;;;;;;22.65;15.15;;;12.40;99.90;;;;;;4977052;28;20034;-74
2022/05/07 00:54:46;;;;;;;23.73;14.35;;;12.40;99.90;;;;;;4965911;28;20035;-74
2022/05/07 00:57:12;;;;;;;22.20;14.38;;;12.40;99.90;;;;;;4935497;28;20133;-74
2022/05/07 00:59:38;;;;;;;22.73;14.73;;;12.50;99.90;;;;;;4965388;28;20133;-74
2022/05/07 01:02:04;;;;;;;23.88;14.93;;;12.50;99.90;;;;;;4975500;28;20201;-74
2022/05/07 01:04:30;;;;;;;22.70;14.35;;;12.50;99.90;;;;;;4963056;28;20474;-74
2022/05/07 01:06:56;;;;;;;22.33;14.55;;;12.50;99.90;;;;;;4974914;28;20030;-74
2022/05/07 01:09:22;;;;;;;21.65;14.77;;;12.40;99.90;;;;;;4968476;28;20031;-74
2022/05/07 01:11:50;;;;;;;22.63;14.55;;;12.40;99.90;;;;;;4965532;28;20824;-74
2022/05/07 01:14:16;;;;;;;18.60;13.40;;;12.50;99.90;;;;;;4952131;28;20122;-74
2022/05/07 01:16:41;;;;;;;24.70;14.50;;;12.50;99.90;;;;;;4964821;28;21832;-74
2022/05/07 01:19:07;;;;;;;23.38;14.43;;;12.50;99.90;;;;;;4968448;28;20034;-75
2022/05/07 01:21:33;;;;;;;25.58;14.23;;;12.50;99.90;;;;;;4968346;28;20046;-74
2022/05/07 01:23:59;;;;;;;21.75;13.77;;;12.50;99.90;;;;;;4966273;28;20027;-73
2022/05/07 01:26:26;;;;;;;23.08;14.00;;;12.60;99.90;;;;;;4950721;28;20039;-74
2022/05/07 01:28:59;;;;;;;20.35;14.70;;;12.60;99.90;;;;;;4965147;28;20383;-73
2022/05/07 01:31:28;;;;;;;20.80;13.77;;;12.50;99.90;;;;;;4965651;28;20070;-73
2022/05/07 01:33:54;;;;;;;;;;;12.50;99.90;;;;;;4967497;28;20035;-74
2022/05/07 01:36:20;;;;;;;22.83;13.82;;;12.50;99.90;;;;;;4962066;28;19943;-74
2022/05/07 01:38:46;;;;;;;23.80;14.85;;;12.50;99.90;;;;;;4964274;28;20070;-74
2022/05/07 01:41:12;;;;;;;19.77;13.27;;;12.50;99.90;;;;;;4964502;28;20415;-74
2022/05/07 01:43:38;;;;;;;20.27;13.60;;;12.40;99.90;;;;;;4969153;28;20039;-75
2022/05/07 01:48:49;;;;;;;23.13;15.15;;;12.30;99.90;;;;;;4973102;28;20045;-75
2022/05/07 01:51:14;;;;;;;23.55;15.50;;;12.20;99.90;;;;;;4969086;28;20054;-74
2022/05/07 01:53:40;;;;;;;22.42;14.55;;;12.20;99.90;;;;;;4966827;28;20037;-75
2022/05/07 01:56:06;;;;;;;22.00;14.77;;;12.20;99.90;;;;;;4967497;28;20034;-75
2022/05/07 01:58:32;;;;;;;22.75;14.75;;;12.20;99.90;;;;;;4964210;28;20077;-74
2022/05/07 02:00:58;;;;;;;22.85;14.68;;;12.20;99.90;;;;;;4962135;28;20066;-74
2022/05/07 02:03:23;;;;;;;22.95;15.32;;;12.20;99.90;;;;;;4964095;28;20035;-74
2022/05/07 02:05:49;;;;;;;21.90;15.00;;;12.20;99.90;;;;;;4965119;28;20034;-75
2022/05/07 02:08:16;;;;;;;24.30;15.70;;;12.30;99.90;;;;;;4950061;28;20038;-74
2022/05/07 02:10:42;;;;;;;24.00;14.88;;;12.20;99.90;;;;;;4964122;28;20435;-74
2022/05/07 02:13:08;;;;;;;22.38;15.40;;;12.20;99.90;;;;;;4948210;28;20042;-74
2022/05/07 02:15:35;;;;;;;23.15;15.15;;;12.20;99.90;;;;;;4965199;28;20043;-74
2022/05/07 02:18:01;;;;;;;21.85;14.73;;;12.30;99.90;;;;;;4949161;28;20039;-75
2022/05/07 02:20:27;;;;;;;23.90;14.70;;;12.20;99.90;;;;;;4964556;28;20157;-74
2022/05/07 02:22:55;;;;;;;23.92;14.07;;;12.00;99.90;;;;;;4966223;28;20039;-74
2022/05/07 02:25:22;;;;;;;;;;;12.00;99.90;;;;;;4962433;28;20095;-74
2022/05/07 02:27:48;;;;;;;21.67;13.00;;;12.00;99.90;;;;;;4961579;28;20370;-75
2022/05/07 02:30:13;;;;;;;20.10;13.13;;;12.10;99.90;;;;;;4964248;28;20054;-74
2022/05/07 02:32:39;;;;;;;21.55;13.98;;;12.10;99.90;;;;;;4963255;28;20131;-74
2022/05/07 02:35:05;;;;;;;19.80;13.35;;;12.10;99.90;;;;;;4963338;28;20063;-74
2022/05/07 02:37:31;;;;;;;23.25;14.50;;;12.10;99.90;;;;;;4962894;28;20027;-74
2022/05/07 02:39:57;;;;;;;24.80;15.65;;;12.10;99.90;;;;;;4964759;28;20038;-74
2022/05/07 02:42:39;;;;;;;21.88;14.40;;;12.10;99.90;;;;;;4967625;28;20038;-74
2022/05/07 02:45:06;;;;;;;23.65;14.13;;;12.20;99.90;;;;;;4948200;28;20023;-74
2022/05/07 02:47:34;;;;;;;20.48;13.82;;;12.10;99.90;;;;;;4965552;28;20534;-74
2022/05/07 02:50:01;;;;;;;20.52;13.73;;;12.10;99.90;;;;;;4966672;28;21665;-74
2022/05/07 02:52:26;;;;;;;21.70;13.98;;;12.10;99.90;;;;;;4968868;28;20077;-75
2022/05/07 02:54:52;;;;;;;20.13;13.10;;;12.10;99.90;;;;;;4968081;28;20421;-74
2022/05/07 02:57:18;;;;;;;21.45;14.32;;;12.00;99.90;;;;;;4963468;28;20041;-75
2022/05/07 02:59:44;;;;;;;23.00;14.50;;;12.00;99.90;;;;;;4965984;28;20035;-74
2022/05/07 03:02:10;;;;;;;21.63;13.40;;;12.00;99.90;;;;;;4948011;28;20078;-74
2022/05/07 03:04:36;;;;;;;23.67;13.90;;;12.00;99.90;;;;;;4967015;28;20043;-74
2022/05/07 03:07:02;;;;;;;17.90;12.13;;;11.90;99.90;;;;;;4966741;28;20031;-74
2022/05/07 03:09:28;;;;;;;22.00;14.00;;;11.90;99.90;;;;;;4966612;28;20035;-74
2022/05/07 03:11:54;;;;;;;18.27;12.95;;;11.80;99.90;;;;;;4968567;28;20494;-74
2022/05/07 03:14:19;;;;;;;17.20;11.40;;;11.80;99.90;;;;;;4968074;28;20026;-74
2022/05/07 03:16:47;;;;;;;19.48;13.25;;;11.80;99.90;;;;;;4965326;28;20038;-74
2022/05/07 03:19:13;;;;;;;24.20;14.05;;;11.80;99.90;;;;;;4965315;28;20043;-74
2022/05/07 03:21:38;;;;;;;22.38;13.60;;;11.80;99.90;;;;;;4967012;28;20023;-74
2022/05/07 03:24:04;;;;;;;24.60;14.35;;;11.70;99.90;;;;;;4968122;28;20031;-74
2022/05/07 03:26:30;;;;;;;20.80;14.00;;;11.70;99.90;;;;;;4964566;28;20038;-74
2022/05/07 03:28:56;;;;;;;16.77;11.00;;;11.70;99.90;;;;;;4972763;28;20059;-75
2022/05/07 03:31:22;;;;;;;17.55;11.48;;;11.70;99.90;;;;;;4961054;28;20043;-75
2022/05/07 03:33:47;;;;;;;12.30;10.27;;;11.70;99.90;;;;;;4945783;28;20043;-75
2022/05/07 03:36:15;;;;;;;11.02;8.77;;;11.60;99.90;;;;;;4964491;28;20031;-75
2022/05/07 03:38:41;;;;;;;9.43;7.65;;;11.60;99.90;;;;;;4966295;28;20050;-75
2022/05/07 03:41:10;;;;;;;12.70;9.13;;;11.60;99.90;;;;;;4948613;28;20337;-75
2022/05/07 03:43:40;;;;;;;20.23;12.30;;;11.70;99.90;;;;;;4934965;28;20086;-74
2022/05/07 03:46:06;;;;;;;21.70;13.48;;;11.70;99.90;;;;;;4964375;28;20027;-74
2022/05/07 03:48:32;;;;;;;20.00;13.10;;;11.70;99.90;;;;;;4964354;28;20023;-74
2022/05/07 03:50:59;;;;;;;17.55;11.98;;;11.50;99.90;;;;;;4950249;28;20125;-74
2022/05/07 03:53:31;;;;;;;18.48;12.00;;;11.40;99.90;;;;;;4966646;28;20115;-73
2022/05/07 03:56:02;;;;;;;18.27;12.07;;;11.50;99.90;;;;;;4969562;28;20805;-73
2022/05/07 03:58:29;;;;;;;20.00;13.43;;;11.50;99.90;;;;;;4967377;28;20031;-73
2022/05/07 04:00:56;;;;;;;19.30;12.43;;;11.50;99.90;;;;;;4964805;28;20063;-73
2022/05/07 04:03:22;;;;;;;20.83;13.85;;;11.50;99.90;;;;;;4968928;28;20031;-74
2022/05/07 04:05:48;;;;;;;19.73;12.85;;;11.40;99.90;;;;;;4967960;28;20577;-74
2022/05/07 04:08:15;;;;;;;17.33;11.45;;;11.40;99.90;;;;;;4969520;28;20046;-74
2022/05/07 04:10:42;;;;;;;16.75;11.48;;;11.50;99.90;;;;;;4979155;28;20026;-74
2022/05/07 04:13:08;;;;;;;10.68;8.82;;;11.60;99.90;;;;;;4987932;28;20029;-74
2022/05/07 04:15:36;;;;;;;12.88;8.68;;;11.50;99.90;;;;;;4983161;28;20034;-74
2022/05/07 04:18:02;;;;;;;15.35;9.48;;;11.50;99.90;;;;;;4957476;28;20031;-74
2022/05/07 04:20:28;;;;;;;13.60;8.75;;;11.40;99.90;;;;;;4967434;28;20097;-74
2022/05/07 04:22:53;;;;;;;12.10;9.18;;;11.30;99.90;;;;;;4968846;28;20043;-75
2022/05/07 04:25:19;;;;;;;16.40;10.27;;;11.30;99.90;;;;;;4967288;28;20031;-74
2022/05/07 04:27:45;;;;;;;13.98;9.82;;;11.30;99.90;;;;;;4949250;28;20065;-74
2022/05/07 04:30:11;;;;;;;14.95;10.45;;;11.20;99.90;;;;;;4968003;28;20481;-74
2022/05/07 04:32:36;;;;;;;16.73;11.52;;;11.20;99.90;;;;;;4966070;28;20455;-74
2022/05/07 04:35:02;;;;;;;19.13;12.23;;;11.30;99.90;;;;;;4966342;28;20050;-75
2022/05/07 04:37:28;;;;;;;19.88;11.90;;;11.30;99.90;;;;;;4951504;28;20739;-75
2022/05/07 04:39:54;;;;;;;14.95;10.98;;;11.40;99.90;;;;;;4966697;28;20533;-74
2022/05/07 04:42:19;;;;;;;14.55;11.00;;;11.40;99.90;;;;;;4970250;28;20106;-74
2022/05/07 04:44:45;;;;;;;11.98;9.88;;;11.40;99.90;;;;;;4947464;28;20066;-75
2022/05/07 04:47:11;;;;;;;14.88;9.57;;;11.40;99.90;;;;;;4967063;28;20038;-74
2022/05/07 04:49:37;;;;;;;10.15;8.75;;;11.40;99.90;;;;;;4965581;28;20067;-74
2022/05/07 04:52:05;;;;;;;11.38;8.77;;;11.30;99.90;;;;;;4967113;28;20031;-74
2022/05/07 04:54:31;;;;;;;;;;;11.30;99.90;;;;;;4951135;28;20034;-74
2022/05/07 04:56:57;;;;;;;11.43;8.60;;;11.30;99.90;;;;;;4970824;28;19920;-74
2022/05/07 04:59:23;;;;;;;10.70;8.95;;;11.30;99.90;;;;;;4964363;28;20035;-74
2022/05/07 05:01:49;;;;;;;16.83;10.77;;;11.20;99.90;;;;;;4966813;28;20479;-74
2022/05/07 05:04:15;;;;;;;17.23;12.30;;;11.20;99.90;;;;;;4967577;28;20034;-74
2022/05/07 05:06:41;;;;;;;18.33;12.00;;;11.20;99.90;;;;;;4948840;28;20105;-74
2022/05/07 05:09:08;;;;;;;19.50;12.38;;;11.30;99.90;;;;;;4966647;28;20039;-74
2022/05/07 05:11:35;;;;;;;20.55;13.50;;;11.40;99.90;;;;;;4948197;28;20027;-74
2022/05/07 05:15:01;;;;;;;17.30;12.50;;;11.50;99.90;;;;;;4966080;28;20019;-74
2022/05/07 05:16:52;;;;;;;22.42;12.15;;;11.50;99.90;;;;;;4964772;28;20032;-75
2022/05/07 05:19:19;;;;;;;18.25;12.82;;;11.60;99.90;;;;;;4967712;28;20038;-75
2022/05/07 05:21:45;;;;;;;20.08;13.68;;;11.60;99.90;;;;;;4963680;28;20035;-75
2022/05/07 05:24:11;;;;;;;19.35;13.05;;;11.70;99.90;;;;;;4964442;28;20030;-75
2022/05/07 05:26:36;;;;;;;18.65;12.18;;;11.70;99.90;;;;;;4967667;28;20069;-75
2022/05/07 05:29:02;;;;;;;20.60;13.40;;;11.70;99.90;;;;;;4962723;28;20043;-75
2022/05/07 05:31:30;;;;;;;24.10;14.88;;;11.70;99.90;;;;;;4964469;28;20035;-75
2022/05/07 05:33:59;;;;;;;24.33;14.47;;;11.70;99.90;;;;;;4948320;28;20126;-75
2022/05/07 05:36:26;;;;;;;23.90;13.75;;;11.70;99.90;;;;;;4950243;28;21853;-75
2022/05/07 05:38:53;;;;;;;22.60;13.93;;;11.70;99.90;;;;;;4964310;28;20443;-74
2022/05/07 05:41:20;;;;;;;20.40;13.45;;;11.80;99.90;;;;;;4963651;28;20054;-74
2022/05/07 05:43:46;;;;;;;23.90;14.73;;;11.80;99.90;;;;;;4948547;28;20038;-75
2022/05/07 05:46:14;;;;;;;22.95;14.77;;;11.70;99.90;;;;;;4947843;28;20121;-75
2022/05/07 05:48:40;;;;;;;22.40;14.18;;;11.70;99.90;;;;;;4960624;28;20133;-75
2022/05/07 05:51:05;;;;;;;20.52;13.32;;;11.70;99.90;;;;;;4967325;28;20099;-75
2022/05/07 05:53:31;;;;;;;21.67;14.38;;;11.70;99.90;;;;;;4965248;28;20135;-75
2022/05/07 05:55:58;;;;;;;23.33;15.13;;;11.80;99.90;;;;;;4964394;28;20313;-74
2022/05/07 05:58:24;;;;;;;20.75;14.20;;;11.80;99.90;;;;;;4962431;28;20039;-74
2022/05/07 06:00:52;;;;;;;22.25;14.55;;;11.80;99.90;;;;;;4961460;28;20051;-74
2022/05/07 06:03:19;;;;;;;21.08;13.43;;;11.80;99.90;;;;;;4962826;28;20079;-74
2022/05/07 06:05:44;;;;;;;22.27;14.07;;;11.80;99.90;;;;;;4964441;28;20107;-74
2022/05/07 06:08:12;;;;;;;23.27;15.07;;;11.80;99.90;;;;;;4965521;28;20551;-74
2022/05/07 06:10:38;;;;;;;22.30;13.48;;;11.80;99.90;;;;;;4950541;28;20031;-74
2022/05/07 06:13:03;;;;;;;22.23;14.63;;;11.80;99.90;;;;;;4971248;28;20092;-73
2022/05/07 06:15:29;;;;;;;21.80;14.27;;;11.80;99.90;;;;;;4962362;28;20125;-74
2022/05/07 06:17:54;;;;;;;22.77;14.05;;;11.80;99.90;;;;;;4964593;28;20043;-74
2022/05/07 06:20:20;;;;;;;22.98;14.02;;;11.80;99.90;;;;;;4962128;28;20279;-74
2022/05/07 06:22:47;;;;;;;23.58;14.02;;;11.80;99.90;;;;;;4944953;28;20061;-74
2022/05/07 06:27:59;;;;;;;23.52;14.75;;;11.90;99.90;;;;;;4965094;28;20034;-74
2022/05/07 06:30:25;;;;;;;;;;;11.90;99.90;;;;;;4965429;28;20440;-74
2022/05/07 06:32:51;;;;;;;22.83;13.07;;;11.90;99.90;;;;;;4968395;28;20014;-75
2022/05/07 06:35:16;;;;;;;22.70;14.25;;;11.90;99.90;;;;;;4968064;28;20094;-74
2022/05/07 06:37:46;;;;;;;24.77;15.98;;;12.00;99.90;;;;;;4971434;28;20054;-74
2022/05/07 06:40:11;;;;;;;23.70;14.75;;;11.90;99.90;;;;;;4956951;28;20039;-74
2022/05/07 06:42:39;;;;;;;25.35;14.93;;;11.90;99.90;;;;;;4975252;28;20141;-74
2022/05/07 06:45:05;;;;;;;22.05;14.77;;;11.90;99.90;;;;;;4965420;28;20030;-74
2022/05/07 06:47:31;;;;;;;21.85;14.15;;;12.00;99.90;;;;;;4965763;28;20027;-74
2022/05/07 06:49:56;;;;;;;22.67;14.25;;;12.00;99.90;;;;;;4966457;28;20074;-74
2022/05/07 06:52:22;;;;;;;23.83;14.73;;;12.00;99.90;;;;;;4967421;28;20745;-75
2022/05/07 06:54:48;;;;;;;23.15;15.07;;;12.00;99.90;;;;;;4965010;28;20031;-75
2022/05/07 06:57:14;;;;;;;23.48;15.32;;;11.90;99.90;;;;;;4964614;28;20026;-74
2022/05/07 06:59:39;;;;;;;26.42;15.00;;;11.90;99.90;;;;;;4964515;28;20043;-74
2022/05/07 07:02:05;;;;;;;25.08;15.45;;;11.90;99.90;;;;;;4963178;28;20140;-74
2022/05/07 07:04:31;;;;;;;23.48;14.77;;;11.90;99.90;;;;;;4947980;28;20126;-74
2022/05/07 07:06:57;;;;;;;22.40;15.27;;;11.80;99.90;;;;;;4963171;28;20035;-75
2022/05/07 07:09:22;;;;;;;23.02;14.10;;;11.80;99.90;;;;;;4963973;28;20501;-74
2022/05/07 07:11:48;;;;;;;23.08;14.82;;;11.80;99.90;;;;;;4966582;28;20134;-75
2022/05/07 07:14:14;;;;;;;24.35;15.32;;;11.80;99.90;;;;;;4963463;28;20101;-74
2022/05/07 07:16:40;;;;;;;21.88;14.27;;;11.80;99.90;;;;;;4964592;28;20043;-76
2022/05/07 07:19:06;;;;;;;22.70;14.23;;;11.80;99.90;;;;;;4965200;28;20042;-74
2022/05/07 07:21:34;;;;;;;19.70;13.15;;;11.80;99.90;;;;;;4948068;28;20331;-75
2022/05/07 07:24:03;;;;;;;23.98;14.30;;;11.80;99.90;;;;;;4963401;28;20031;-75
2022/05/07 07:26:29;;;;;;;18.88;13.50;;;11.90;99.90;;;;;;4943022;28;20077;-75
2022/05/07 07:28:56;;;;;;;27.80;16.13;;;12.00;99.90;;;;;;4965222;28;20071;-75
2022/05/07 07:31:23;;;;;;;22.20;14.50;;;11.90;99.90;;;;;;4962346;28;20039;-75
2022/05/07 07:33:49;;;;;;;22.83;14.80;;;11.90;99.90;;;;;;4961114;28;20039;-75
2022/05/07 07:36:14;;;;;;;20.60;13.70;;;11.90;99.90;;;;;;4962229;28;20050;-75
2022/05/07 07:38:40;;;;;;;21.77;14.10;;;11.90;99.90;;;;;;4945247;28;20488;-75
2022/05/07 07:41:07;;;;;;;18.77;12.90;;;11.90;99.90;;;;;;4962241;28;20046;-74
2022/05/07 07:43:33;;;;;;;23.35;14.18;;;12.00;99.90;;;;;;4962060;28;20153;-75
2022/05/07 07:48:44;;;;;;;22.63;14.10;;;12.10;99.90;;;;;;4948506;28;20129;-75
2022/05/07 07:51:10;;;;;;;20.80;13.30;;;12.20;99.90;;;;;;4959940;28;20043;-75
2022/05/07 07:53:38;;;;;;;20.83;13.80;;;12.20;99.90;;;;;;4965522;28;20042;-75
2022/05/07 07:56:13;;;;;;;18.60;13.77;;;12.20;99.90;;;;;;4948663;28;20545;-75
2022/05/07 07:58:39;;;;;;;17.65;13.13;;;12.20;99.90;;;;;;4967887;28;21338;-75
2022/05/07 08:01:08;;;;;;;22.83;13.77;;;12.20;99.90;;;;;;4966906;28;20065;-75
2022/05/07 08:03:33;;;;;;;19.38;13.45;;;12.30;99.90;;;;;;4952541;28;20062;-74
2022/05/07 08:05:59;;;;;;;21.20;13.65;;;12.30;99.90;;;;;;4966080;28;20050;-75
2022/05/07 08:13:59;;;;;;;22.52;14.65;;;12.50;99.90;;;;;;4967510;28;20061;-75
2022/05/07 08:16:25;;;;;;;22.77;13.73;;;12.50;99.90;;;;;;4967709;28;20035;-75
2022/05/07 08:18:51;;;;;;;20.55;14.48;;;12.60;99.90;;;;;;4951651;28;20038;-75
2022/05/07 08:21:18;;;;;;;22.90;14.40;;;12.60;99.90;;;;;;4966132;28;20027;-75
2022/05/07 08:23:44;;;;;;;20.35;13.40;;;12.80;99.90;;;;;;4963942;28;20058;-75
2022/05/07 08:26:10;;;;;;;20.90;13.80;;;12.80;99.90;;;;;;4967363;28;20106;-75
2022/05/07 08:28:37;;;;;;;21.23;14.73;;;12.90;99.90;;;;;;4950765;28;21436;-76
2022/05/07 08:31:04;;;;;;;22.45;14.90;;;12.90;99.90;;;;;;4949908;28;20042;-76
2022/05/07 08:33:32;;;;;;;22.70;14.90;;;13.00;99.90;;;;;;4951041;28;20036;-76
2022/05/07 08:35:58;;;;;;;20.30;13.25;;;13.10;99.90;;;;;;4967819;28;20038;-76
2022/05/07 08:38:27;;;;;;;23.90;14.95;;;13.20;99.90;;;;;;4964943;28;20479;-76
2022/05/07 08:40:53;;;;;;;27.08;15.18;;;13.40;99.90;;;;;;4965655;28;20031;-76
2022/05/07 08:43:22;;;;;;;23.23;15.20;;;13.50;99.90;;;;;;4950044;28;20062;-76
2022/05/07 08:45:48;;;;;;;22.13;14.80;;;13.50;99.90;;;;;;4966898;28;20133;-76
2022/05/07 08:48:14;;;;;;;22.10;14.25;;;13.50;99.90;;;;;;4967209;28;20158;-76
2022/05/07 08:50:40;;;;;;;23.52;17.00;;;13.40;99.90;;;;;;4968096;28;20471;-76
2022/05/07 08:53:07;;;;;;;21.88;14.98;;;13.60;99.90;;;;;;4948162;28;20039;-76
2022/05/07 08:55:33;;;;;;;17.58;14.05;;;13.70;99.90;;;;;;4931583;28;20050;-76
2022/05/07 08:57:59;;;;;;;20.90;14.40;;;13.70;99.90;;;;;;4962495;28;20046;-75
2022/05/07 09:00:26;;;;;;;20.23;13.98;;;13.80;99.90;;;;;;4967247;28;20036;-75
2022/05/07 09:02:55;;;;;;;33.10;14.27;;;13.90;99.90;;;;;;4960823;28;20077;-75
2022/05/07 09:05:22;;;;;;;21.50;14.93;;;13.90;99.90;;;;;;4958283;28;20053;-74
2022/05/07 09:07:56;;;;;;;18.60;13.50;;;13.90;99.90;;;;;;4958996;28;20042;-74
2022/05/07 09:10:26;;;;;;;24.50;15.68;;;13.90;99.90;;;;;;4958902;28;20043;-74
2022/05/07 09:12:53;;;;;;;19.25;14.55;;;13.90;99.90;;;;;;4961690;28;20043;-74
2022/05/07 09:15:19;;;;;;;25.30;15.10;;;13.90;99.90;;;;;;4937239;28;20059;-74
2022/05/07 09:17:48;;;;;;;21.95;14.02;;;13.90;99.90;;;;;;4957130;28;20069;-74
2022/05/07 09:20:19;;;;;;;22.25;14.27;;;14.00;99.90;;;;;;4958333;28;20033;-75
2022/05/07 09:22:54;;;;;;;19.80;14.10;;;13.80;99.90;;;;;;4908428;28;20858;-73
2022/05/07 09:25:23;;;;;;;23.23;14.60;;;13.70;99.90;;;;;;4958740;28;20034;-73
2022/05/07 09:27:57;;;;;;;23.38;15.48;;;13.80;99.90;;;;;;4959428;28;20036;-74
2022/05/07 09:30:27;;;;;;;19.40;14.15;;;13.80;99.90;;;;;;4957704;28;20459;-73
2022/05/07 09:32:54;;;;;;;20.45;14.82;;;13.90;99.90;;;;;;4941549;28;20050;-74
2022/05/07 09:38:12;;;;;;;21.25;14.05;;;14.10;99.90;;;;;;4944168;28;20473;-75
2022/05/07 09:40:40;;;;;;;19.92;14.00;;;14.20;99.90;;;;;;4958919;28;20042;-73
2022/05/07 09:43:07;;;;;;;19.30;13.02;;;14.30;99.90;;;;;;4958859;28;20127;-74
2022/05/07 09:45:35;;;;;;;21.38;13.18;;;14.40;99.90;;;;;;4959498;28;20051;-73
2022/05/07 09:48:01;;;;;;;18.10;12.45;;;14.50;99.90;;;;;;4957762;28;20039;-74
2022/05/07 09:58:41;;;;;;;15.10;11.57;;;14.90;99.90;;;;;;4960080;28;20125;-74
2022/05/07 10:01:21;;;;;;;14.88;10.73;;;14.90;99.90;;;;;;4959318;28;20149;-74
2022/05/07 10:04:00;;;;;;;17.15;12.05;;;14.90;99.90;;;;;;4957993;28;20035;-74
2022/05/07 10:06:37;;;;;;;16.35;12.10;;;15.10;99.90;;;;;;4958418;28;20145;-74
2022/05/07 10:09:23;;;;;;;19.77;12.18;;;15.00;99.90;;;;;;4958043;28;20478;-74
2022/05/07 10:11:57;;;;;;;17.75;12.18;;;14.90;99.90;;;;;;4958748;28;20406;-74
2022/05/07 10:14:30;;;;;;;15.55;11.07;;;15.10;99.90;;;;;;4958795;28;20038;-74
2022/05/07 10:17:00;;;;;;;18.60;12.45;;;15.20;99.90;;;;;;4956697;28;20057;-74
2022/05/07 10:19:39;;;;;;;15.18;11.80;;;15.30;99.90;;;;;;4955910;28;20476;-74
2022/05/07 10:22:34;;;;;;;16.65;12.15;;;15.40;99.90;;;;;;4958430;28;20039;-73
2022/05/07 10:25:05;;;;;;;15.98;11.75;;;15.40;99.90;;;;;;4944786;28;20043;-74
2022/05/07 10:27:37;;;;;;;16.05;11.48;;;15.30;99.90;;;;;;4938979;28;20494;-74
2022/05/07 10:30:14;;;;;;;16.42;11.32;;;15.40;99.90;;;;;;4957884;28;20054;-74
2022/05/07 10:33:03;;;;;;;15.02;11.50;;;15.40;99.90;;;;;;4959257;28;20147;-74
2022/05/07 10:35:47;;;;;;;15.90;11.63;;;15.50;99.90;;;;;;4955928;28;20046;-74
2022/05/07 10:38:26;;;;;;;14.68;11.43;;;15.50;99.90;;;;;;4959364;28;20034;-74
2022/05/07 10:41:01;;;;;;;16.25;12.02;;;15.50;99.90;;;;;;4958133;28;20442;-74
2022/05/07 10:43:40;;;;;;;17.20;11.80;;;15.60;99.90;;;;;;4962284;28;20030;-74
2022/05/07 10:46:08;;;;;;;17.98;12.05;;;15.50;99.90;;;;;;4963133;28;20105;-76
2022/05/07 10:48:43;;;;;;;15.65;12.43;;;15.60;99.90;;;;;;4963780;28;20041;-76
2022/05/07 10:51:38;;;;;;;12.50;10.10;;;15.70;99.90;;;;;;4944906;28;20058;-77
2022/05/07 10:54:18;;;;;;;12.55;9.70;;;15.80;99.90;;;;;;4966169;28;20039;-76
2022/05/07 10:56:55;;;;;;;11.98;8.65;;;15.70;99.90;;;;;;4963795;28;20120;-75
2022/05/07 10:59:26;;;;;;;12.57;10.93;;;15.70;99.90;;;;;;4965244;28;20451;-76
2022/05/07 11:02:08;;;;;;;11.45;9.25;;;15.70;99.90;;;;;;4964643;28;20059;-75
2022/05/07 11:04:44;;;;;;;13.27;9.95;;;15.70;99.90;;;;;;4959898;28;20050;-75
2022/05/07 11:07:10;;;;;;;12.75;8.98;;;15.70;99.90;;;;;;4959630;28;20039;-74
2022/05/07 11:09:37;;;;;;;12.80;9.32;;;15.70;99.90;;;;;;4959634;28;20093;-75
2022/05/07 11:12:03;;;;;;;11.90;9.87;;;15.60;99.90;;;;;;4963753;28;20042;-74
2022/05/07 11:14:30;;;;;;;13.20;9.45;;;15.70;99.90;;;;;;4963210;28;20042;-75
2022/05/07 11:16:57;;;;;;;14.35;10.15;;;15.70;99.90;;;;;;4965951;28;20049;-79
2022/05/07 11:19:27;;;;;;;13.50;9.95;;;15.70;99.90;;;;;;4963714;28;20039;-78
2022/05/07 11:21:53;;;;;;;11.75;8.65;;;15.90;99.90;;;;;;4963293;28;20043;-78
2022/05/07 11:24:20;;;;;;;13.73;9.35;;;16.00;99.90;;;;;;4964086;28;20493;-85
2022/05/07 11:26:54;;;;;;;11.27;8.60;;;16.10;99.90;;;;;;4969839;28;20035;-80
2022/05/07 11:29:20;;;;;;;13.00;9.48;;;16.20;99.90;;;;;;4967108;28;20084;-82
2022/05/07 11:32:08;;;;;;;10.35;8.35;;;16.30;99.90;;;;;;4966191;28;20045;-79
2022/05/07 11:34:35;;;;;;;12.30;9.15;;;16.30;99.90;;;;;;4963654;28;20034;-79
2022/05/07 11:37:20;;;;;;;11.32;8.75;;;16.30;99.90;;;;;;4968435;28;20603;-78
2022/05/07 11:40:02;;;;;;;11.60;7.43;;;16.20;99.90;;;;;;4964748;28;20043;-77
2022/05/07 11:45:25;;;;;;;12.20;8.55;;;16.20;99.90;;;;;;4966239;28;20038;-77
2022/05/07 11:45:36;;;;;;;10.00;8.00;;;16.20;99.90;;;;;;4960110;28;20026;-79
2022/05/07 11:48:14;;;;;;;9.68;7.60;;;16.20;99.90;;;;;;4963576;28;20771;-80
2022/05/07 11:50:50;;;;;;;10.73;7.78;;;16.20;99.90;;;;;;4963015;28;20732;-82
2022/05/07 11:53:20;;;;;;;8.43;6.35;;;16.30;99.90;;;;;;4946063;28;20043;-86
2022/05/07 11:55:49;;;;;;;7.57;5.32;;;16.40;99.90;;;;;;4961396;28;20487;-78
2022/05/07 11:58:21;;;;;;;;;;;16.60;99.90;;;;;;4961171;28;20183;-78
2022/05/07 12:00:48;;;;;;;5.88;4.72;;;16.60;99.90;;;;;;4965628;28;19936;-80
2022/05/07 12:03:19;;;;;;;10.70;5.40;;;16.60;99.90;;;;;;4986187;28;20034;-79
2022/05/07 12:05:47;;;;;;;5.97;5.10;;;16.60;99.90;;;;;;4980520;28;20054;-76
2022/05/07 12:08:14;;;;;;;5.75;4.63;;;16.50;99.10;;;;;;4984034;28;20030;-79
2022/05/07 12:10:40;;;;;;;6.95;5.72;;;16.60;99.90;;;;;;4985847;28;20039;-77
2022/05/07 12:13:06;;;;;;;6.28;5.18;;;16.70;99.90;;;;;;4983022;28;20061;-79
2022/05/07 12:18:16;;;;;;;8.45;6.13;;;17.00;99.90;;;;;;4984070;28;20120;-81
2022/05/07 12:20:41;;;;;;;10.75;7.65;;;16.90;99.90;;;;;;4987665;28;20041;-82
2022/05/07 12:31:19;;;;;;;11.23;8.55;;;16.90;99.90;;;;;;4985139;28;20057;-79
2022/05/07 12:33:45;;;;;;;11.30;9.20;;;17.00;99.90;;;;;;4985506;28;20473;-84
2022/05/07 12:36:11;;;;;;;10.98;8.93;;;17.00;99.90;;;;;;4967518;28;20041;-82
2022/05/07 12:38:37;;;;;;;13.63;8.27;;;17.10;99.90;;;;;;4987459;28;20161;-82
2022/05/07 12:41:03;;;;;;;10.13;7.68;;;17.10;99.90;;;;;;4988223;28;21869;-76
2022/05/07 12:43:28;;;;;;;11.38;9.30;;;17.20;99.90;;;;;;4987344;28;20081;-77
2022/05/07 12:45:54;;;;;;;10.32;8.13;;;17.40;99.90;;;;;;4969276;28;20041;-76
2022/05/07 12:48:21;;;;;;;8.65;7.13;;;17.40;99.90;;;;;;4986094;28;20033;-75
2022/05/07 12:50:47;;;;;;;10.20;8.40;;;17.50;99.90;;;;;;4967442;28;20039;-76
2022/05/07 12:53:14;;;;;;;10.75;8.57;;;17.70;99.90;;;;;;4983691;28;20034;-76
2022/05/07 12:55:42;;;;;;;11.93;8.68;;;17.60;99.90;;;;;;4982968;28;20658;-76
2022/05/07 12:58:09;;;;;;;11.90;9.67;;;17.70;99.90;;;;;;4982308;28;20039;-75
2022/05/07 13:00:35;;;;;;;13.38;9.88;;;17.80;99.90;;;;;;4979145;28;20039;-75
2022/05/07 13:03:02;;;;;;;11.15;9.40;;;17.40;99.90;;;;;;4967172;28;20101;-85
2022/05/07 13:05:29;;;;;;;11.10;9.02;;;17.10;99.90;;;;;;4978926;28;21303;-77
2022/05/07 13:07:55;;;;;;;11.57;9.55;;;17.20;99.90;;;;;;4982733;28;20450;-76
2022/05/07 13:10:21;;;;;;;9.20;7.25;;;17.10;99.90;;;;;;4961423;28;20026;-82